createdAt,value
2023-05-12T00:01:30.179Z,6.40
2023-05-12T00:03:59.071Z,7.63
2023-05-12T00:06:27.875Z,5.87
2023-05-12T00:08:56.510Z,7.20
2023-05-12T00:11:26.893Z,6.50
2023-05-12T00:13:56.515Z,6.70
2023-05-12T00:16:25.299Z,7.27
2023-05-12T00:18:54.021Z,7.13
2023-05-12T00:21:22.750Z,6.33
2023-05-12T00:23:51.443Z,6.60
2023-05-12T00:26:20.156Z,7.17
2023-05-12T00:28:50.218Z,6.63
2023-05-12T00:31:19.033Z,6.03
2023-05-12T00:33:47.734Z,6.80
2023-05-12T00:36:16.474Z,6.93
2023-05-12T00:38:45.002Z,7.73
2023-05-12T00:41:13.714Z,6.40
2023-05-12T00:43:42.798Z,6.70
2023-05-12T00:46:13.055Z,7.07
2023-05-12T00:48:42.372Z,6.87
2023-05-12T00:51:10.985Z,6.47
2023-05-12T00:53:49.422Z,6.80
2023-05-12T00:56:22.050Z,6.50
2023-05-12T00:58:50.821Z,6.70
2023-05-12T01:01:21.043Z,7.10
2023-05-12T01:03:49.859Z,6.80
2023-05-12T01:06:23.936Z,7.13
2023-05-12T01:08:53.910Z,5.80
2023-05-12T01:11:22.963Z,6.23
2023-05-12T01:13:51.647Z,7.80
2023-05-12T01:16:25.173Z,7.00
2023-05-12T01:18:57.203Z,6.37
2023-05-12T01:21:26.059Z,6.30
2023-05-12T01:24:00.120Z,6.43
2023-05-12T01:26:32.536Z,7.43
2023-05-12T01:29:02.833Z,7.30
2023-05-12T01:31:32.368Z,6.90
2023-05-12T01:34:01.141Z,6.80
2023-05-12T01:36:29.765Z,6.07
2023-05-12T01:38:58.306Z,6.37
2023-05-12T01:41:26.900Z,6.20
2023-05-12T01:43:56.987Z,6.33
2023-05-12T01:46:25.641Z,7.47
2023-05-12T01:48:54.303Z,7.33
2023-05-12T01:51:22.952Z,6.60
2023-05-12T01:53:51.623Z,6.90
2023-05-12T01:56:20.329Z,6.50
2023-05-12T01:58:48.984Z,7.20
2023-05-12T02:01:19.244Z,6.00
2023-05-12T02:03:47.962Z,6.70
2023-05-12T02:06:17.304Z,6.60
2023-05-12T02:08:46.221Z,6.50
2023-05-12T02:11:14.919Z,6.13
2023-05-12T02:13:44.627Z,6.60
2023-05-12T02:16:13.652Z,6.97
2023-05-12T02:18:43.822Z,7.07
2023-05-12T02:21:15.078Z,6.63
2023-05-12T02:23:43.797Z,6.80
2023-05-12T02:26:12.459Z,6.10
2023-05-12T02:28:41.171Z,6.30
2023-05-12T02:31:09.827Z,7.07
2023-05-12T02:33:38.503Z,7.43
2023-05-12T02:36:09.650Z,6.97
2023-05-12T02:38:40.082Z,6.97
2023-05-12T02:41:08.791Z,7.60
2023-05-12T02:43:37.496Z,6.90
2023-05-12T02:46:06.334Z,6.07
2023-05-12T02:48:35.036Z,7.30
2023-05-12T02:51:03.817Z,7.30
2023-05-12T02:53:33.903Z,6.90
2023-05-12T02:56:03.214Z,7.47
2023-05-12T02:58:31.921Z,6.00
2023-05-12T03:01:10.164Z,6.30
2023-05-12T03:03:40.193Z,7.10
2023-05-12T03:06:09.723Z,6.87
2023-05-12T03:08:39.834Z,8.00
2023-05-12T03:11:08.555Z,6.83
2023-05-12T03:13:37.184Z,6.70
2023-05-12T03:16:08.333Z,6.80
2023-05-12T03:18:37.064Z,7.70
2023-05-12T03:21:06.090Z,7.00
2023-05-12T03:23:35.271Z,6.60
2023-05-12T03:26:05.381Z,7.13
2023-05-12T03:28:33.970Z,6.63
2023-05-12T03:31:02.615Z,7.10
2023-05-12T03:33:31.538Z,7.50
2023-05-12T03:36:00.456Z,7.00
2023-05-12T03:38:29.224Z,7.10
2023-05-12T03:41:06.685Z,6.80
2023-05-12T03:43:36.201Z,6.17
2023-05-12T03:46:05.045Z,7.27
2023-05-12T03:48:33.812Z,6.60
2023-05-12T03:51:02.516Z,7.10
2023-05-12T03:53:31.175Z,6.23
2023-05-12T03:55:59.859Z,7.07
2023-05-12T03:58:30.008Z,6.17
2023-05-12T04:00:59.030Z,7.43
2023-05-12T04:03:27.786Z,7.10
2023-05-12T04:06:00.633Z,8.73
2023-05-12T04:08:29.642Z,7.20
2023-05-12T04:10:59.384Z,7.50
2023-05-12T04:13:31.890Z,7.30
2023-05-12T04:16:01.305Z,6.97
2023-05-12T04:18:30.638Z,6.73
2023-05-12T04:20:59.465Z,7.10
2023-05-12T04:23:28.283Z,8.17
2023-05-12T04:25:57.044Z,6.67
2023-05-12T04:28:25.683Z,6.47
2023-05-12T04:30:55.896Z,8.13
2023-05-12T04:33:24.544Z,6.70
2023-05-12T04:35:57.963Z,7.07
2023-05-12T04:38:27.603Z,7.27
2023-05-12T04:41:00.450Z,7.07
2023-05-12T04:46:02.493Z,7.93
2023-05-12T04:48:31.329Z,7.27
2023-05-12T04:51:01.137Z,6.90
2023-05-12T04:53:34.805Z,6.90
2023-05-12T04:56:03.775Z,6.07
2023-05-12T04:58:32.807Z,7.20
2023-05-12T05:01:02.962Z,7.00
2023-05-12T05:03:32.156Z,6.47
2023-05-12T05:06:00.907Z,7.60
2023-05-12T05:08:29.460Z,6.90
2023-05-12T05:10:58.283Z,7.80
2023-05-12T05:13:27.021Z,6.57
2023-05-12T05:15:56.433Z,7.27
2023-05-12T05:18:27.244Z,7.53
2023-05-12T05:20:58.836Z,6.60
2023-05-12T05:23:28.080Z,7.70
2023-05-12T05:25:56.896Z,6.53
2023-05-12T05:28:26.881Z,7.13
2023-05-12T05:30:55.574Z,7.03
2023-05-12T05:33:25.775Z,7.50
2023-05-12T05:35:55.036Z,7.50
2023-05-12T05:38:24.023Z,6.70
2023-05-12T05:40:54.111Z,6.80
2023-05-12T05:43:24.706Z,7.20
2023-05-12T05:45:53.574Z,6.73
2023-05-12T05:48:22.298Z,7.37
2023-05-12T05:50:53.247Z,6.37
2023-05-12T05:53:22.867Z,6.40
2023-05-12T05:55:52.023Z,7.20
2023-05-12T05:58:21.100Z,6.73
2023-05-12T06:00:49.868Z,6.30
2023-05-12T06:03:18.608Z,7.40
2023-05-12T06:05:48.728Z,6.77
2023-05-12T06:08:18.917Z,7.13
2023-05-12T06:10:48.477Z,6.27
2023-05-12T06:13:18.693Z,6.50
2023-05-12T06:15:48.685Z,6.60
2023-05-12T06:18:17.624Z,6.00
2023-05-12T06:20:46.242Z,5.13
2023-05-12T06:23:14.949Z,6.50
2023-05-12T06:25:45.257Z,5.47
2023-05-12T06:28:13.920Z,5.60
2023-05-12T06:30:42.763Z,6.40
2023-05-12T06:33:11.448Z,5.37
2023-05-12T06:35:40.211Z,5.27
2023-05-12T06:38:09.625Z,7.03
2023-05-12T06:40:38.632Z,5.40
2023-05-12T06:43:10.263Z,6.40
2023-05-12T06:45:39.292Z,5.37
2023-05-12T06:48:09.718Z,5.50
2023-05-12T06:50:38.812Z,5.27
2023-05-12T06:53:08.279Z,5.60
2023-05-12T06:55:37.367Z,5.20
2023-05-12T06:58:08.140Z,5.00
2023-05-12T07:00:37.886Z,4.90
2023-05-12T07:03:10.720Z,5.47
2023-05-12T07:05:40.015Z,4.57
2023-05-12T07:08:09.136Z,4.93
2023-05-12T07:10:38.301Z,4.90
2023-05-12T07:13:08.881Z,4.80
2023-05-12T07:15:37.927Z,5.30
2023-05-12T07:18:07.073Z,4.90
2023-05-12T07:20:35.831Z,4.83
2023-05-12T07:23:04.802Z,5.23
2023-05-12T07:25:33.609Z,4.80
2023-05-12T07:28:02.326Z,5.23
2023-05-12T07:30:32.833Z,6.50
2023-05-12T07:33:02.611Z,4.50
2023-05-12T07:35:31.421Z,4.40
2023-05-12T07:38:00.358Z,4.70
2023-05-12T07:40:29.024Z,5.03
2023-05-12T07:42:57.956Z,4.47
2023-05-12T07:45:26.844Z,4.67
2023-05-12T07:47:57.046Z,4.13
2023-05-12T07:50:25.983Z,5.53
2023-05-12T07:52:57.601Z,4.37
2023-05-12T07:55:26.992Z,4.17
2023-05-12T07:57:56.087Z,4.30
2023-05-12T08:00:25.157Z,4.83
2023-05-12T08:02:54.870Z,5.90
2023-05-12T08:05:25.617Z,4.10
2023-05-12T08:07:54.548Z,4.50
2023-05-12T08:10:26.940Z,4.35
2023-05-12T08:12:55.902Z,3.67
2023-05-12T08:15:24.887Z,3.63
2023-05-12T08:17:53.906Z,4.00
2023-05-12T08:20:22.759Z,4.15
2023-05-12T08:22:53.095Z,3.63
2023-05-12T08:25:22.398Z,3.58
2023-05-12T08:27:51.259Z,3.15
2023-05-12T08:30:20.100Z,3.28
2023-05-12T08:32:48.886Z,3.63
2023-05-12T08:35:17.977Z,3.85
2023-05-12T08:37:46.893Z,3.80
2023-05-12T08:40:22.435Z,4.20
2023-05-12T08:42:57.974Z,3.80
2023-05-12T08:45:28.197Z,4.45
2023-05-12T08:47:58.266Z,3.30
2023-05-12T08:50:30.530Z,4.15
2023-05-12T08:53:01.688Z,3.35
2023-05-12T08:55:34.047Z,3.25
2023-05-12T08:58:05.132Z,3.65
2023-05-12T09:00:36.391Z,3.60
2023-05-12T09:03:08.143Z,3.33
2023-05-12T09:05:37.467Z,3.60
2023-05-12T09:08:07.845Z,3.25
2023-05-12T09:10:38.278Z,3.10
2023-05-12T09:13:15.003Z,3.22
2023-05-12T09:15:46.851Z,3.30
2023-05-12T09:18:15.775Z,5.22
2023-05-12T09:21:01.130Z,3.88
2023-05-12T09:23:30.536Z,3.70
2023-05-12T09:26:04.251Z,3.15
2023-05-12T09:28:39.936Z,3.30
2023-05-12T09:31:19.327Z,3.13
2023-05-12T09:33:48.322Z,2.90
2023-05-12T09:36:19.813Z,3.00
2023-05-12T09:38:48.911Z,2.63
2023-05-12T09:41:24.692Z,3.08
2023-05-12T09:43:54.896Z,3.28
2023-05-12T09:46:23.573Z,3.17
2023-05-12T09:48:52.147Z,2.78
2023-05-12T09:51:20.968Z,3.13
2023-05-12T09:53:50.200Z,2.92
2023-05-12T09:56:21.478Z,2.63
2023-05-12T09:58:51.739Z,2.83
2023-05-12T10:01:23.946Z,2.95
2023-05-12T10:03:54.936Z,2.30
2023-05-12T10:06:28.505Z,2.95
2023-05-12T10:09:05.702Z,3.53
2023-05-12T10:11:36.314Z,2.65
2023-05-12T10:14:06.939Z,2.50
2023-05-12T10:16:35.840Z,3.00
2023-05-12T10:19:05.803Z,3.03
2023-05-12T10:21:34.832Z,2.97
2023-05-12T10:24:05.304Z,2.53
2023-05-12T10:26:36.466Z,3.22
2023-05-12T10:29:06.374Z,2.53
2023-05-12T10:31:36.540Z,2.88
2023-05-12T10:34:06.145Z,2.50
2023-05-12T10:36:45.288Z,2.85
2023-05-12T10:39:16.211Z,2.60
2023-05-12T10:41:46.460Z,2.70
2023-05-12T10:44:15.130Z,2.85
2023-05-12T10:46:44.089Z,2.78
2023-05-12T10:49:15.787Z,2.50
2023-05-12T10:51:51.108Z,2.38
2023-05-12T10:54:26.256Z,2.53
2023-05-12T10:57:00.697Z,2.92
2023-05-12T10:59:29.880Z,2.72
2023-05-12T11:02:01.835Z,3.47
2023-05-12T11:04:41.076Z,2.40
2023-05-12T11:07:12.068Z,2.63
2023-05-12T11:09:53.131Z,2.63
2023-05-12T11:12:29.064Z,2.42
2023-05-12T11:14:57.825Z,3.25
2023-05-12T11:17:26.634Z,4.75
2023-05-12T11:19:55.799Z,2.40
2023-05-12T11:22:25.258Z,3.10
2023-05-12T11:24:54.249Z,2.53
2023-05-12T11:27:24.267Z,3.17
2023-05-12T11:30:01.642Z,2.70
2023-05-12T11:32:31.686Z,3.08
2023-05-12T11:35:13.632Z,2.65
2023-05-12T11:37:43.778Z,3.65
2023-05-12T11:40:20.308Z,2.70
2023-05-12T11:42:53.030Z,4.00
2023-05-12T11:45:25.366Z,2.85
2023-05-12T11:47:56.115Z,2.45
2023-05-12T11:50:27.084Z,2.67
2023-05-12T11:52:55.893Z,2.90
2023-05-12T11:55:26.856Z,2.53
2023-05-12T11:58:00.898Z,2.33
2023-05-12T12:00:36.812Z,3.10
2023-05-12T12:03:10.651Z,2.55
2023-05-12T12:05:39.857Z,2.42
2023-05-12T12:08:14.077Z,2.90
2023-05-12T12:10:46.125Z,3.00
2023-05-12T12:13:21.290Z,2.95
2023-05-12T12:15:52.473Z,2.70
2023-05-12T12:18:21.937Z,3.13
2023-05-12T12:21:03.322Z,2.50
2023-05-12T12:23:43.885Z,3.20
2023-05-12T12:26:17.456Z,2.70
2023-05-12T12:28:49.043Z,3.10
2023-05-12T12:31:20.013Z,3.37
2023-05-12T12:33:48.781Z,3.27
2023-05-12T12:36:17.782Z,2.60
2023-05-12T12:38:46.788Z,2.90
2023-05-12T12:41:16.475Z,2.90
2023-05-12T12:43:45.368Z,2.83
2023-05-12T12:46:14.390Z,3.00
2023-05-12T12:48:45.177Z,2.10
2023-05-12T12:51:16.981Z,2.37
2023-05-12T12:53:47.721Z,3.07
2023-05-12T12:56:17.287Z,2.37
2023-05-12T12:58:46.727Z,2.63
2023-05-12T13:01:15.692Z,2.73
2023-05-12T13:03:45.957Z,2.40
2023-05-12T13:06:14.776Z,2.43
2023-05-12T13:08:44.028Z,2.40
2023-05-12T13:11:13.130Z,2.47
2023-05-12T13:13:41.930Z,2.37
2023-05-12T13:16:10.652Z,2.50
2023-05-12T13:18:39.735Z,2.43
2023-05-12T13:21:10.109Z,2.37
2023-05-12T13:23:39.116Z,2.30
2023-05-12T13:26:07.895Z,2.60
2023-05-12T13:28:36.624Z,2.53
2023-05-12T13:31:08.379Z,2.50
2023-05-12T13:33:37.189Z,2.53
2023-05-12T13:36:06.431Z,2.30
2023-05-12T13:38:36.631Z,2.60
2023-05-12T13:41:05.452Z,2.53
2023-05-12T13:43:34.137Z,2.33
2023-05-12T13:46:02.956Z,2.57
2023-05-12T13:48:32.002Z,2.73
2023-05-12T13:51:00.868Z,2.10
2023-05-12T13:53:29.831Z,2.63
2023-05-12T13:56:00.000Z,2.70
2023-05-12T13:58:28.681Z,1.90
2023-05-12T14:00:57.585Z,1.93
2023-05-12T14:03:26.284Z,2.53
2023-05-12T14:05:55.063Z,2.47
2023-05-12T14:08:23.871Z,2.70
2023-05-12T14:10:52.564Z,2.47
2023-05-12T14:13:24.478Z,2.53
2023-05-12T14:15:53.867Z,2.40
2023-05-12T14:18:23.202Z,2.60
2023-05-12T14:20:52.098Z,2.83
2023-05-12T14:23:21.173Z,2.70
2023-05-12T14:25:50.127Z,2.67
2023-05-12T14:28:18.967Z,2.77
2023-05-12T14:30:49.364Z,2.37
2023-05-12T14:33:18.070Z,2.40
2023-05-12T14:35:55.697Z,2.03
2023-05-12T14:38:28.845Z,2.20
2023-05-12T14:40:57.826Z,2.63
2023-05-12T14:43:26.642Z,2.60
2023-05-12T14:45:56.907Z,2.43
2023-05-12T14:48:27.463Z,1.97
2023-05-12T14:50:57.133Z,2.63
2023-05-12T14:53:25.962Z,2.20
2023-05-12T14:55:54.694Z,1.57
2023-05-12T14:58:24.463Z,2.20
2023-05-12T15:00:54.186Z,2.33
2023-05-12T15:03:24.986Z,2.40
2023-05-12T15:06:05.523Z,2.43
2023-05-12T15:08:35.080Z,2.37
2023-05-12T15:11:04.018Z,2.30
2023-05-12T15:13:33.149Z,2.70
2023-05-12T15:16:03.245Z,3.00
2023-05-12T15:18:34.154Z,2.50
2023-05-12T15:21:02.961Z,2.20
2023-05-12T15:23:31.801Z,2.47
2023-05-12T15:26:07.229Z,2.80
2023-05-12T15:28:44.547Z,3.07
2023-05-12T15:31:13.482Z,3.27
2023-05-12T15:33:43.672Z,2.67
2023-05-12T15:36:13.749Z,2.37
2023-05-12T15:38:42.819Z,2.90
2023-05-12T15:41:11.975Z,2.87
2023-05-12T15:43:41.339Z,3.30
2023-05-12T15:46:11.057Z,2.30
2023-05-12T15:48:40.102Z,2.83
2023-05-12T15:51:10.131Z,2.80
2023-05-12T15:53:38.872Z,2.47
2023-05-12T15:56:09.067Z,2.50
2023-05-12T15:58:37.924Z,2.47
2023-05-12T16:01:06.876Z,2.40
2023-05-12T16:03:35.708Z,2.47
2023-05-12T16:06:04.758Z,2.50
2023-05-12T16:08:35.617Z,2.70
2023-05-12T16:11:04.328Z,3.10
2023-05-12T16:13:33.028Z,2.67
2023-05-12T16:16:02.330Z,3.43
2023-05-12T16:18:32.197Z,2.50
2023-05-12T16:21:01.891Z,2.90
2023-05-12T16:23:30.668Z,3.50
2023-05-12T16:26:00.824Z,2.77
2023-05-12T16:28:29.657Z,2.63
2023-05-12T16:30:58.276Z,2.80
2023-05-12T16:33:27.242Z,3.27
2023-05-12T16:35:56.017Z,2.90
2023-05-12T16:38:24.756Z,3.30
2023-05-12T16:40:53.502Z,3.10
2023-05-12T16:43:23.621Z,2.60
2023-05-12T16:46:01.673Z,3.40
2023-05-12T16:48:34.602Z,3.07
2023-05-12T16:51:05.070Z,2.90
2023-05-12T16:53:34.815Z,2.97
2023-05-12T16:56:04.461Z,4.13
2023-05-12T16:58:35.306Z,3.60
2023-05-12T17:01:04.890Z,2.83
2023-05-12T17:03:33.722Z,3.10
2023-05-12T17:06:02.560Z,2.80
2023-05-12T17:08:31.395Z,3.80
2023-05-12T17:11:00.632Z,4.50
2023-05-12T17:13:31.145Z,3.10
2023-05-12T17:16:02.652Z,2.80
2023-05-12T17:18:32.667Z,3.73
2023-05-12T17:21:01.511Z,3.37
2023-05-12T17:23:30.609Z,3.40
2023-05-12T17:26:01.438Z,3.03
2023-05-12T17:28:31.973Z,3.90
2023-05-12T17:31:03.414Z,3.67
2023-05-12T17:33:32.421Z,3.60
2023-05-12T17:36:12.483Z,3.40
2023-05-12T17:38:44.134Z,3.53
2023-05-12T17:41:13.867Z,4.97
2023-05-12T17:43:44.245Z,3.87
2023-05-12T17:46:14.391Z,4.10
2023-05-12T17:48:43.079Z,3.27
2023-05-12T17:51:11.993Z,3.53
2023-05-12T17:53:40.852Z,4.27
2023-05-12T17:56:09.629Z,3.43
2023-05-12T17:58:38.890Z,2.60
2023-05-12T18:01:08.417Z,4.27
2023-05-12T18:03:38.786Z,3.63
2023-05-12T18:06:09.362Z,3.30
2023-05-12T18:08:38.062Z,3.13
2023-05-12T18:11:07.043Z,3.87
2023-05-12T18:13:36.334Z,3.13
2023-05-12T18:16:06.200Z,2.63
2023-05-12T18:18:37.920Z,3.70
2023-05-12T18:21:07.520Z,3.63
2023-05-12T18:23:36.666Z,3.50
2023-05-12T18:26:05.631Z,3.77
2023-05-12T18:28:34.362Z,4.13
2023-05-12T18:31:15.140Z,4.30
2023-05-12T18:33:48.268Z,3.80
2023-05-12T18:36:17.352Z,3.97
2023-05-12T18:38:46.628Z,3.77
2023-05-12T18:41:15.547Z,4.07
2023-05-12T18:43:45.307Z,3.00
2023-05-12T18:46:15.173Z,3.27
2023-05-12T18:48:45.580Z,4.80
2023-05-12T18:51:14.514Z,3.70
2023-05-12T18:53:43.217Z,4.10
2023-05-12T18:56:12.040Z,4.00
2023-05-12T18:58:40.738Z,4.13
2023-05-12T19:01:09.607Z,4.50
2023-05-12T19:03:38.654Z,4.93
2023-05-12T19:06:09.255Z,4.67
2023-05-12T19:08:38.391Z,4.43
2023-05-12T19:11:07.659Z,4.20
2023-05-12T19:13:41.063Z,3.50
2023-05-12T19:16:10.011Z,4.57
2023-05-12T19:18:39.296Z,3.90
2023-05-12T19:21:10.022Z,3.90
2023-05-12T19:23:38.761Z,5.20
2023-05-12T19:26:07.920Z,4.10
2023-05-12T19:28:37.478Z,4.33
2023-05-12T19:31:08.541Z,4.27
2023-05-12T19:33:37.463Z,4.70
2023-05-12T19:36:07.437Z,4.03
2023-05-12T19:38:38.343Z,4.20
2023-05-12T19:41:07.245Z,4.70
2023-05-12T19:43:36.754Z,3.60
2023-05-12T19:46:05.654Z,4.47
2023-05-12T19:48:35.511Z,4.47
2023-05-12T19:51:05.181Z,4.87
2023-05-12T19:53:47.858Z,5.40
2023-05-12T19:56:19.790Z,5.30
2023-05-12T19:58:49.062Z,6.13
2023-05-12T20:01:18.044Z,5.37
2023-05-12T20:03:46.885Z,5.53
2023-05-12T20:06:15.732Z,6.03
2023-05-12T20:08:45.899Z,4.97
2023-05-12T20:11:15.175Z,6.07
2023-05-12T20:13:43.836Z,5.30
2023-05-12T20:16:12.929Z,5.60
2023-05-12T20:18:41.903Z,5.37
2023-05-12T20:21:10.622Z,5.70
2023-05-12T20:23:39.422Z,5.20
2023-05-12T20:26:10.314Z,5.43
2023-05-12T20:28:39.537Z,5.00
2023-05-12T20:31:10.099Z,5.13
2023-05-12T20:33:39.019Z,5.83
2023-05-12T20:36:08.241Z,5.53
2023-05-12T20:38:38.078Z,5.03
2023-05-12T20:41:09.494Z,4.23
2023-05-12T20:43:38.402Z,5.00
2023-05-12T20:46:08.870Z,5.67
2023-05-12T20:48:37.737Z,5.50
2023-05-12T20:51:17.391Z,5.40
2023-05-12T20:53:46.491Z,5.43
2023-05-12T20:56:17.152Z,5.20
2023-05-12T20:58:46.084Z,5.50
2023-05-12T21:01:14.929Z,5.13
2023-05-12T21:03:43.834Z,5.13
2023-05-12T21:06:13.674Z,6.40
2023-05-12T21:08:42.454Z,5.40
2023-05-12T21:11:19.641Z,4.90
2023-05-12T21:13:48.860Z,5.30
2023-05-12T21:16:17.921Z,4.87
2023-05-12T21:18:46.997Z,5.13
2023-05-12T21:21:16.259Z,5.33
2023-05-12T21:23:45.345Z,5.77
2023-05-12T21:26:14.185Z,5.23
2023-05-12T21:28:44.373Z,5.47
2023-05-12T21:31:13.245Z,4.93
2023-05-12T21:33:42.175Z,4.10
2023-05-12T21:36:12.096Z,5.37
2023-05-12T21:38:40.809Z,5.00
2023-05-12T21:41:09.521Z,5.37
2023-05-12T21:43:38.185Z,5.40
2023-05-12T21:46:08.500Z,5.77
2023-05-12T21:48:37.191Z,4.20
2023-05-12T21:51:06.509Z,5.30
2023-05-12T21:53:35.429Z,5.50
2023-05-12T21:56:04.619Z,5.30
2023-05-12T21:58:33.349Z,5.07
2023-05-12T22:01:02.180Z,5.40
2023-05-12T22:03:33.241Z,5.60
2023-05-12T22:06:02.353Z,4.90
2023-05-12T22:08:31.116Z,4.90
2023-05-12T22:10:59.787Z,5.33
2023-05-12T22:13:28.626Z,5.07
2023-05-12T22:15:57.390Z,4.70
2023-05-12T22:18:26.099Z,6.27
2023-05-12T22:20:56.372Z,5.13
2023-05-12T22:23:25.273Z,4.90
2023-05-12T22:25:54.045Z,5.53
2023-05-12T22:28:22.918Z,7.47
2023-05-12T22:30:51.955Z,5.77
2023-05-12T22:33:20.866Z,6.00
2023-05-12T22:35:49.780Z,5.60
2023-05-12T22:38:19.961Z,5.37
2023-05-12T22:40:48.887Z,5.40
2023-05-12T22:43:17.901Z,5.57
2023-05-12T22:45:46.662Z,6.17
2023-05-12T22:48:15.337Z,5.57
2023-05-12T22:50:44.001Z,6.30
2023-05-12T22:53:12.775Z,5.80
2023-05-12T22:55:42.882Z,6.07
2023-05-12T22:58:12.120Z,6.50
2023-05-12T23:00:40.892Z,6.77
2023-05-12T23:03:09.740Z,5.73
2023-05-12T23:05:38.416Z,6.50
2023-05-12T23:08:07.173Z,6.80
2023-05-12T23:10:36.443Z,6.47
2023-05-12T23:13:07.990Z,7.07
2023-05-12T23:15:36.778Z,6.30
2023-05-12T23:18:05.643Z,6.33
2023-05-12T23:20:35.182Z,6.10
2023-05-12T23:23:03.925Z,6.13
2023-05-12T23:25:32.937Z,6.17
2023-05-12T23:28:01.648Z,6.67
2023-05-12T23:30:32.293Z,5.70
2023-05-12T23:33:01.089Z,6.73
2023-05-12T23:35:29.974Z,6.37
2023-05-12T23:37:58.675Z,6.00
2023-05-12T23:40:27.452Z,6.30
2023-05-12T23:42:56.200Z,6.67
2023-05-12T23:45:24.867Z,6.70
2023-05-12T23:47:55.048Z,6.47
2023-05-12T23:50:24.136Z,6.30
2023-05-12T23:52:53.856Z,6.63
2023-05-12T23:55:22.781Z,6.63
2023-05-12T23:57:51.817Z,6.90
